Alta Vista, KS

6:17 AM CST on December 29, 2014 (GMT -0600)
deepcreek | Change Station
CLOSE
Current Station
Personal Weather Station
Location: Manhattan, KS
Elevation: 1263 ft
Nearby Weather Stations

Elev 1263 ft 39.12 °N, 96.50 °W | Updated 36 seconds ago

Clear
Clear
22.8 °F
Feels Like 23 °F
N
0.0
Wind Variable Wind from South
Gusts 0.0 mph

Today
High -- | Low -- °F
--% Chance of Precip.
Yesterday
High -- | Low -- °F
Precip. -- in
7:43 AM 5:12 PM
First Quarter, 58% visible
Pressure 30.25 in
Visibility 10.0 miles
Clouds Overcast 16000 ft
Windchill 23 °F
Dew Point 4 °F
Humidity 44%
Rainfall 0.00 in
Snow Depth Not available.
UV 0 out of 12
Pollen .10 out of 12
Air Quality Not available.
Flu Activity Not available.
METAR KFRI 291158Z AUTO 07003KT 10SM OVC160 M07/M07 A3021 RMK AO2 SLP241 T10681070 11011 21076 52010

More Conditions Fewer Conditions

Pressure 30.25 in
Visibility 10.0 miles
Clouds Overcast 16000 ft
Windchill 23 °F
Dew Point 4 °F
Humidity 44%
Rainfall 0.00 in
Snow Depth Not available.
UV 0 out of 12
Pollen .10 out of 12
Air Quality Not available.
Flu Activity Not available.
METAR KFRI 291158Z AUTO 07003KT 10SM OVC160 M07/M07 A3021 RMK AO2 SLP241 T10681070 11011 21076 52010

More Conditions Fewer Conditions

10-Day Weather Forecast

Almanac

Astronomy

Dec. 29, 2014 Rise Set
Actual Time
Civil Twilight
Nautical Twilight
Astronomical Twilight
Moon
Length of Visible Light
Length of Day
Tomorrow will be .
, % of the Moon is Illuminated

Today's Extremes

State Highs State Lows

Community

WunderPhotos

Upload Photos

1,781,571 photos uploaded!

WunderBlogs® & News

Nearby

Air Quality

  Air Quality AQ Index Pollutant
Not available.

Snow Depth

Station Depth Elevation

Earthquake Activity

City Distance Mag. Time & Date
Minimum magnitude displayed is 2.5.

Coastal Water Temperatures

Place Temperature

Nearby Weather Stations